createdAt,value
2022-09-11T00:01:15.317Z,99566.75
2022-09-11T00:03:44.063Z,99567.45
2022-09-11T00:06:13.530Z,99565.94
2022-09-11T00:08:41.264Z,99561.59
2022-09-11T00:11:07.881Z,99557.65
2022-09-11T00:13:36.365Z,99553.27
2022-09-11T00:16:05.888Z,99544.46
2022-09-11T00:18:35.466Z,99544.27
2022-09-11T00:21:05.543Z,99545.84
2022-09-11T00:23:32.727Z,99549.11
2022-09-11T00:26:02.964Z,99558.70
2022-09-11T00:28:30.282Z,99559.43
2022-09-11T00:31:18.311Z,99562.85
2022-09-11T00:33:45.635Z,99560.14
2022-09-11T00:36:17.719Z,99560.76
2022-09-11T00:38:45.784Z,99565.98
2022-09-11T00:41:18.666Z,99565.98
2022-09-11T00:43:55.428Z,99565.79
2022-09-11T00:46:41.748Z,99564.96
2022-09-11T00:49:34.215Z,99562.30
2022-09-11T00:52:09.804Z,99563.92
2022-09-11T00:54:43.358Z,99561.73
2022-09-11T00:57:10.704Z,99559.48
2022-09-11T00:59:41.364Z,99550.95
2022-09-11T01:02:13.155Z,99558.70
2022-09-11T01:04:39.951Z,99559.89
2022-09-11T01:07:06.937Z,99558.81
2022-09-11T01:09:34.014Z,99552.26
2022-09-11T01:12:41.539Z,99542.96
2022-09-11T01:16:03.534Z,99546.11
2022-09-11T01:18:38.790Z,99539.94
2022-09-11T01:21:25.019Z,99547.65
2022-09-11T01:24:00.543Z,99552.45
2022-09-11T01:26:31.894Z,99560.56
2022-09-11T01:29:21.544Z,99564.39
2022-09-11T01:32:02.472Z,99567.05
2022-09-11T01:34:57.097Z,99567.39
2022-09-11T01:37:51.338Z,99568.33
2022-09-11T01:40:40.162Z,99571.51
2022-09-11T01:43:13.246Z,99570.40
2022-09-11T01:45:44.093Z,99564.98
2022-09-11T01:48:16.414Z,99560.41
2022-09-11T01:50:47.239Z,99549.08
2022-09-11T01:53:21.543Z,99555.21
2022-09-11T01:56:01.813Z,99546.20
2022-09-11T01:58:33.236Z,99539.51
2022-09-11T02:01:16.094Z,99540.13
2022-09-11T02:03:50.021Z,99544.75
2022-09-11T02:06:26.402Z,99544.59
2022-09-11T02:08:59.688Z,99546.56
2022-09-11T02:11:33.117Z,99550.46
2022-09-11T02:14:20.755Z,99550.73
2022-09-11T02:16:53.099Z,99560.91
2022-09-11T02:19:25.704Z,99562.48
2022-09-11T02:21:52.800Z,99565.84
2022-09-11T02:24:22.236Z,99574.57
2022-09-11T02:26:53.739Z,99567.60
2022-09-11T02:29:21.195Z,99560.52
2022-09-11T02:31:48.756Z,99558.91
2022-09-11T02:34:17.477Z,99551.66
2022-09-11T02:36:57.584Z,99545.35
2022-09-11T02:40:04.120Z,99552.17
2022-09-11T02:42:34.962Z,99548.36
2022-09-11T02:45:37.373Z,99541.83
2022-09-11T02:48:24.489Z,99552.06
2022-09-11T02:51:15.171Z,99551.89
2022-09-11T02:53:54.642Z,99543.14
2022-09-11T02:56:48.474Z,99541.37
2022-09-11T02:59:21.320Z,99536.70
2022-09-11T03:01:51.462Z,99541.36
2022-09-11T03:04:21.800Z,99542.02
2022-09-11T03:06:49.717Z,99541.29
2022-09-11T03:09:18.064Z,99545.98
2022-09-11T03:11:47.056Z,99549.02
2022-09-11T03:14:14.067Z,99545.15
2022-09-11T03:16:42.470Z,99550.33
2022-09-11T03:19:09.849Z,99547.79
2022-09-11T03:21:38.562Z,99550.10
2022-09-11T03:24:07.527Z,99551.73
2022-09-11T03:26:36.155Z,99552.61
2022-09-11T03:29:03.382Z,99554.24
2022-09-11T03:31:31.295Z,99556.30
2022-09-11T03:33:58.404Z,99562.75
2022-09-11T03:36:25.339Z,99559.19
2022-09-11T03:38:54.647Z,99552.65
2022-09-11T03:41:21.402Z,99552.34
2022-09-11T03:43:48.218Z,99556.73
2022-09-11T03:46:17.214Z,99562.34
2022-09-11T03:48:46.349Z,99563.39
2022-09-11T03:51:14.567Z,99562.48
2022-09-11T03:53:42.604Z,99560.74
2022-09-11T03:56:11.759Z,99563.66
2022-09-11T03:58:45.841Z,99564.21
2022-09-11T04:01:15.259Z,99556.16
2022-09-11T04:03:42.363Z,99548.16
2022-09-11T04:06:13.669Z,99545.23
2022-09-11T04:08:40.896Z,99547.46
2022-09-11T04:11:11.129Z,99547.86
2022-09-11T04:13:40.379Z,99553.27
2022-09-11T04:16:15.428Z,99558.00
2022-09-11T04:18:45.274Z,99559.08
2022-09-11T04:21:14.771Z,99561.16
2022-09-11T04:23:43.842Z,99561.67
2022-09-11T04:26:15.958Z,99571.53
2022-09-11T04:28:43.795Z,99573.05
2022-09-11T04:31:12.106Z,99574.54
2022-09-11T04:33:39.088Z,99574.70
2022-09-11T04:36:12.541Z,99576.21
2022-09-11T04:38:40.328Z,99576.64
2022-09-11T04:41:08.383Z,99580.98
2022-09-11T04:43:37.608Z,99578.58
2022-09-11T04:46:10.945Z,99574.27
2022-09-11T04:48:46.798Z,99581.26
2022-09-11T04:51:23.858Z,99584.29
2022-09-11T04:53:54.533Z,99581.17
2022-09-11T04:56:21.356Z,99584.27
2022-09-11T04:59:05.248Z,99585.75
2022-09-11T05:01:33.608Z,99584.63
2022-09-11T05:04:01.300Z,99583.80
2022-09-11T05:06:29.855Z,99579.85
2022-09-11T05:09:03.917Z,99578.69
2022-09-11T05:11:31.871Z,99568.04
2022-09-11T05:13:58.995Z,99564.67
2022-09-11T05:16:28.498Z,99562.92
2022-09-11T05:18:56.514Z,99561.90
2022-09-11T05:21:25.238Z,99562.30
2022-09-11T05:23:55.135Z,99560.16
2022-09-11T05:26:35.356Z,99567.16
2022-09-11T05:29:10.067Z,99563.94
2022-09-11T05:31:42.189Z,99563.16
2022-09-11T05:34:09.513Z,99565.81
2022-09-11T05:36:36.825Z,99570.89
2022-09-11T05:39:04.773Z,99569.59
2022-09-11T05:41:32.866Z,99572.64
2022-09-11T05:44:01.893Z,99574.99
2022-09-11T05:46:29.260Z,99573.19
2022-09-11T05:48:59.125Z,99571.15
2022-09-11T05:51:26.670Z,99569.98
2022-09-11T05:53:55.538Z,99568.66
2022-09-11T05:56:25.395Z,99565.02
2022-09-11T05:58:57.249Z,99566.92
2022-09-11T06:01:28.462Z,99561.94
2022-09-11T06:04:08.652Z,99565.98
2022-09-11T06:06:35.627Z,99563.23
2022-09-11T06:09:04.324Z,99561.06
2022-09-11T06:11:32.491Z,99555.20
2022-09-11T06:13:59.666Z,99557.61
2022-09-11T06:16:28.642Z,99559.25
2022-09-11T06:18:57.640Z,99562.34
2022-09-11T06:21:26.734Z,99557.19
2022-09-11T06:23:59.869Z,99562.75
2022-09-11T06:26:28.874Z,99562.86
2022-09-11T06:28:56.621Z,99563.33
2022-09-11T06:31:25.576Z,99564.59
2022-09-11T06:33:54.422Z,99562.55
2022-09-11T06:36:26.100Z,99562.45
2022-09-11T06:38:54.731Z,99560.48
2022-09-11T06:41:23.987Z,99559.63
2022-09-11T06:43:52.905Z,99555.20
2022-09-11T06:46:22.190Z,99559.77
2022-09-11T06:48:50.388Z,99556.05
2022-09-11T06:51:21.000Z,99553.35
2022-09-11T06:53:57.264Z,99541.77
2022-09-11T06:56:29.956Z,99546.67
2022-09-11T06:58:56.912Z,99553.54
2022-09-11T07:01:25.870Z,99553.64
2022-09-11T07:04:01.430Z,99539.30
2022-09-11T07:06:32.493Z,99544.48
2022-09-11T07:09:01.952Z,99544.77
2022-09-11T07:11:44.801Z,99522.48
2022-09-11T07:14:12.184Z,99539.50
2022-09-11T07:16:40.858Z,99535.45
2022-09-11T07:19:10.649Z,99544.73
2022-09-11T07:21:38.429Z,99543.01
2022-09-11T07:24:05.838Z,99539.19
2022-09-11T07:26:38.783Z,99534.59
2022-09-11T07:29:13.336Z,99539.02
2022-09-11T07:32:00.222Z,99533.71
2022-09-11T07:34:27.290Z,99533.70
2022-09-11T07:36:54.825Z,99542.25
2022-09-11T07:39:24.024Z,99544.65
2022-09-11T07:41:56.155Z,99539.50
2022-09-11T07:44:26.904Z,99537.23
2022-09-11T07:46:53.627Z,99521.02
2022-09-11T07:49:20.953Z,99526.14
2022-09-11T07:51:48.381Z,99523.00
2022-09-11T07:54:21.248Z,99516.18
2022-09-11T07:56:49.052Z,99510.86
2022-09-11T07:59:17.637Z,99506.60
2022-09-11T08:01:45.509Z,99505.94
2022-09-11T08:04:15.687Z,99504.70
2022-09-11T08:06:42.493Z,99501.40
2022-09-11T08:09:15.290Z,99495.64
2022-09-11T08:11:48.194Z,99490.02
2022-09-11T08:14:17.187Z,99483.54
2022-09-11T08:16:45.108Z,99482.54
2022-09-11T08:19:20.129Z,99482.84
2022-09-11T08:21:52.460Z,99480.43
2022-09-11T08:24:20.817Z,99478.89
2022-09-11T08:26:50.112Z,99476.35
2022-09-11T08:29:18.507Z,99474.88
2022-09-11T08:31:45.486Z,99473.73
2022-09-11T08:34:13.523Z,99471.56
2022-09-11T08:36:40.341Z,99476.23
2022-09-11T08:39:08.565Z,99475.60
2022-09-11T08:41:56.747Z,99476.32
2022-09-11T08:44:50.770Z,99473.42
2022-09-11T08:47:28.827Z,99474.45
2022-09-11T08:50:04.976Z,99474.72
2022-09-11T08:52:33.732Z,99468.67
2022-09-11T08:55:01.789Z,99469.13
2022-09-11T08:57:44.778Z,99466.69
2022-09-11T09:00:27.118Z,99464.39
2022-09-11T09:03:16.253Z,99461.20
2022-09-11T09:06:16.914Z,99462.89
2022-09-11T09:08:56.209Z,99456.34
2022-09-11T09:11:35.758Z,99456.71
2022-09-11T09:14:28.779Z,99454.57
2022-09-11T09:17:07.637Z,99449.00
2022-09-11T09:19:39.363Z,99446.43
2022-09-11T09:22:18.217Z,99439.63
2022-09-11T09:24:51.737Z,99437.08
2022-09-11T09:27:30.339Z,99442.33
2022-09-11T09:30:00.395Z,99440.73
2022-09-11T09:32:46.869Z,99440.92
2022-09-11T09:35:22.733Z,99444.39
2022-09-11T09:37:50.220Z,99445.08
2022-09-11T09:40:18.576Z,99451.67
2022-09-11T09:43:05.182Z,99454.08
2022-09-11T09:45:57.803Z,99453.66
2022-09-11T09:48:24.638Z,99449.45
2022-09-11T09:50:51.369Z,99451.71
2022-09-11T09:53:21.117Z,99453.08
2022-09-11T09:55:48.652Z,99453.80
2022-09-11T09:58:15.384Z,99454.53
2022-09-11T10:00:42.317Z,99453.02
2022-09-11T10:03:22.329Z,99450.70
2022-09-11T10:05:53.282Z,99445.70
2022-09-11T10:08:29.681Z,99436.27
2022-09-11T10:10:59.557Z,99433.55
2022-09-11T10:13:29.093Z,99433.88
2022-09-11T10:15:59.048Z,99435.75
2022-09-11T10:18:29.566Z,99437.36
2022-09-11T10:21:11.141Z,99436.35
2022-09-11T10:23:43.988Z,99434.29
2022-09-11T10:26:25.003Z,99436.38
2022-09-11T10:29:00.708Z,99435.49
2022-09-11T10:31:27.571Z,99439.23
2022-09-11T10:33:59.200Z,99437.80
2022-09-11T10:36:29.267Z,99430.84
2022-09-11T10:38:58.691Z,99427.99
2022-09-11T10:41:33.597Z,99428.91
2022-09-11T10:44:03.697Z,99425.33
2022-09-11T10:46:42.422Z,99423.79
2022-09-11T10:49:21.374Z,99419.48
2022-09-11T10:52:19.357Z,99410.96
2022-09-11T10:55:03.322Z,99405.40
2022-09-11T10:57:49.269Z,99405.88
2022-09-11T11:00:20.722Z,99407.02
2022-09-11T11:02:50.756Z,99400.83
2022-09-11T11:05:31.848Z,99397.66
2022-09-11T11:08:13.958Z,99398.95
2022-09-11T11:11:12.187Z,99398.11
2022-09-11T11:13:48.808Z,99387.56
2022-09-11T11:16:35.730Z,99379.80
2022-09-11T11:19:02.362Z,99376.88
2022-09-11T11:21:32.169Z,99373.14
2022-09-11T11:24:07.770Z,99367.17
2022-09-11T11:26:46.631Z,99357.63
2022-09-11T11:29:33.796Z,99356.91
2022-09-11T11:32:15.859Z,99365.77
2022-09-11T11:35:00.713Z,99364.69
2022-09-11T11:37:41.146Z,99357.98
2022-09-11T11:40:36.508Z,99357.30
2022-09-11T11:43:07.285Z,99352.65
2022-09-11T11:45:44.492Z,99348.80
2022-09-11T11:48:16.658Z,99349.83
2022-09-11T11:50:48.457Z,99353.99
2022-09-11T11:53:28.031Z,99347.70
2022-09-11T11:56:14.138Z,99339.95
2022-09-11T11:58:55.672Z,99332.24
2022-09-11T12:01:37.680Z,99333.70
2022-09-11T12:04:34.111Z,99335.86
2022-09-11T12:07:03.494Z,99332.34
2022-09-11T12:09:33.662Z,99336.59
2022-09-11T12:12:06.166Z,99333.10
2022-09-11T12:14:33.762Z,99327.40
2022-09-11T12:17:19.498Z,99320.30
2022-09-11T12:20:10.974Z,99318.41
2022-09-11T12:22:46.304Z,99324.89
2022-09-11T12:25:19.008Z,99324.30
2022-09-11T12:27:45.597Z,99318.30
2022-09-11T12:30:15.323Z,99320.20
2022-09-11T12:32:47.359Z,99328.96
2022-09-11T12:35:19.459Z,99339.41
2022-09-11T12:37:55.181Z,99348.89
2022-09-11T12:40:39.560Z,99350.98
2022-09-11T12:43:17.041Z,99350.80
2022-09-11T12:45:47.216Z,99349.15
2022-09-11T12:48:16.707Z,99343.76
2022-09-11T12:50:55.755Z,99348.98
2022-09-11T12:53:30.658Z,99361.73
2022-09-11T12:56:01.213Z,99364.68
2022-09-11T12:58:34.815Z,99362.56
2022-09-11T13:01:07.976Z,99365.20
2022-09-11T13:03:37.215Z,99364.91
2022-09-11T13:06:09.180Z,99372.37
2022-09-11T13:08:54.240Z,99372.86
2022-09-11T13:11:38.182Z,99382.16
2022-09-11T13:14:28.788Z,99385.77
2022-09-11T13:17:04.630Z,99381.38
2022-09-11T13:19:36.966Z,99386.58
2022-09-11T13:22:30.568Z,99381.26
2022-09-11T13:25:20.753Z,99378.56
2022-09-11T13:27:54.257Z,99376.27
2022-09-11T13:30:23.213Z,99370.41
2022-09-11T13:33:06.756Z,99357.05
2022-09-11T13:35:40.215Z,99357.58
2022-09-11T13:38:18.848Z,99358.49
2022-09-11T13:40:49.260Z,99351.36
2022-09-11T13:43:20.285Z,99348.49
2022-09-11T13:45:47.444Z,99345.95
2022-09-11T13:48:23.419Z,99340.37
2022-09-11T13:50:51.685Z,99310.41
2022-09-11T13:53:19.736Z,99328.20
2022-09-11T13:55:52.694Z,99327.27
2022-09-11T13:58:35.104Z,99326.56
2022-09-11T14:01:10.601Z,99328.13
2022-09-11T14:03:42.170Z,99324.89
2022-09-11T14:06:14.525Z,99322.30
2022-09-11T14:08:49.425Z,99319.55
2022-09-11T14:11:31.409Z,99314.56
2022-09-11T14:14:06.347Z,99314.64
2022-09-11T14:16:41.451Z,99313.71
2022-09-11T14:19:14.303Z,99309.73
2022-09-11T14:21:46.856Z,99303.27
2022-09-11T14:24:32.722Z,99297.29
2022-09-11T14:27:01.739Z,99296.47
2022-09-11T14:29:35.626Z,99294.05
2022-09-11T14:32:29.226Z,99298.80
2022-09-11T14:34:56.714Z,99301.68
2022-09-11T14:37:27.141Z,99297.66
2022-09-11T14:40:04.250Z,99297.60
2022-09-11T14:42:33.186Z,99292.40
2022-09-11T14:45:08.554Z,99297.48
2022-09-11T14:47:36.017Z,99307.31
2022-09-11T14:50:04.879Z,99313.00
2022-09-11T14:52:36.942Z,99315.83
2022-09-11T14:55:04.715Z,99315.87
2022-09-11T14:57:34.033Z,99312.90
2022-09-11T15:00:01.015Z,99313.66
2022-09-11T15:02:28.602Z,99314.71
2022-09-11T15:04:57.547Z,99314.33
2022-09-11T15:07:25.296Z,99314.86
2022-09-11T15:09:52.940Z,99307.98
2022-09-11T15:12:21.379Z,99309.80
2022-09-11T15:14:58.189Z,99303.35
2022-09-11T15:17:30.969Z,99298.38
2022-09-11T15:19:59.646Z,99294.54
2022-09-11T15:22:26.648Z,99297.29
2022-09-11T15:24:55.970Z,99291.95
2022-09-11T15:27:24.585Z,99290.95
2022-09-11T15:29:52.240Z,99290.74
2022-09-11T15:32:20.638Z,99290.43
2022-09-11T15:34:47.389Z,99287.17
2022-09-11T15:37:16.369Z,99281.54
2022-09-11T15:39:43.748Z,99274.47
2022-09-11T15:42:11.993Z,99277.11
2022-09-11T15:44:38.897Z,99280.34
2022-09-11T15:47:06.407Z,99286.99
2022-09-11T15:49:39.671Z,99294.75
2022-09-11T15:52:06.526Z,99306.00
2022-09-11T15:54:33.533Z,99325.66
2022-09-11T15:57:00.670Z,99345.48
2022-09-11T15:59:27.987Z,99354.39
2022-09-11T16:01:55.141Z,99359.13
2022-09-11T16:04:27.767Z,99359.84
2022-09-11T16:06:54.655Z,99364.14
2022-09-11T16:09:26.470Z,99363.33
2022-09-11T16:11:54.203Z,99363.09
2022-09-11T16:14:26.991Z,99362.35
2022-09-11T16:16:55.477Z,99350.75
2022-09-11T16:19:26.898Z,99347.11
2022-09-11T16:22:00.461Z,99342.61
2022-09-11T16:24:29.689Z,99330.14
2022-09-11T16:26:56.625Z,99321.05
2022-09-11T16:29:44.013Z,99321.25
2022-09-11T16:32:27.309Z,99320.63
2022-09-11T16:34:55.347Z,99320.83
2022-09-11T16:37:22.092Z,99325.12
2022-09-11T16:39:50.165Z,99335.73
2022-09-11T16:42:20.546Z,99346.59
2022-09-11T16:44:47.972Z,99351.54
2022-09-11T16:47:15.777Z,99355.48
2022-09-11T16:50:05.922Z,99353.94
2022-09-11T16:52:29.162Z,99353.54
2022-09-11T16:54:55.919Z,99365.02
2022-09-11T16:57:22.613Z,99373.59
2022-09-11T16:59:50.023Z,99379.98
2022-09-11T17:02:16.831Z,99378.40
2022-09-11T17:04:43.557Z,99379.70
2022-09-11T17:07:10.332Z,99378.02
2022-09-11T17:09:37.239Z,99384.16
2022-09-11T17:12:03.996Z,99383.67
2022-09-11T17:14:30.684Z,99372.58
2022-09-11T17:16:57.428Z,99364.48
2022-09-11T17:19:24.177Z,99366.13
2022-09-11T17:21:50.856Z,99366.39
2022-09-11T17:24:21.058Z,99364.33
2022-09-11T17:26:51.153Z,99359.25
2022-09-11T17:29:21.217Z,99355.89
2022-09-11T17:31:47.936Z,99353.77
2022-09-11T17:34:15.070Z,99357.93
2022-09-11T17:36:42.740Z,99352.89
2022-09-11T17:39:09.417Z,99341.48
2022-09-11T17:41:36.204Z,99331.77
2022-09-11T17:44:03.401Z,99332.49
2022-09-11T17:46:30.161Z,99338.20
2022-09-11T17:48:56.834Z,99335.91
2022-09-11T17:51:27.331Z,99337.24
2022-09-11T17:53:56.863Z,99337.23
2022-09-11T17:56:31.750Z,99338.40
2022-09-11T17:59:00.074Z,99334.83
2022-09-11T18:01:29.922Z,99335.52
2022-09-11T18:03:58.293Z,99329.27
2022-09-11T18:06:27.669Z,99326.77
2022-09-11T18:08:59.753Z,99326.26
2022-09-11T18:11:27.809Z,99323.52
2022-09-11T18:13:54.797Z,99321.45
2022-09-11T18:16:22.191Z,99321.54
2022-09-11T18:18:49.293Z,99322.05
2022-09-11T18:21:16.645Z,99325.05
2022-09-11T18:23:45.818Z,99323.98
2022-09-11T18:26:21.497Z,99326.41
2022-09-11T18:28:49.821Z,99319.92
2022-09-11T18:31:16.715Z,99321.16
2022-09-11T18:33:43.929Z,99325.84
2022-09-11T18:36:12.911Z,99330.86
2022-09-11T18:38:39.886Z,99322.98
2022-09-11T18:41:06.706Z,99324.23
2022-09-11T18:43:33.439Z,99324.18
2022-09-11T18:46:03.182Z,99325.27
2022-09-11T18:48:30.014Z,99328.29
2022-09-11T18:50:57.697Z,99325.99
2022-09-11T18:53:25.445Z,99326.48
2022-09-11T18:56:00.481Z,99325.80
2022-09-11T18:58:30.583Z,99324.20
2022-09-11T19:01:00.314Z,99319.80
2022-09-11T19:03:29.755Z,99323.56
2022-09-11T19:06:10.363Z,99322.28
2022-09-11T19:08:38.620Z,99321.91
2022-09-11T19:11:21.825Z,99319.35
2022-09-11T19:13:50.506Z,99315.98
2022-09-11T19:16:18.945Z,99320.04
2022-09-11T19:18:45.666Z,99324.52
2022-09-11T19:21:21.688Z,99322.48
2022-09-11T19:23:50.574Z,99325.05
2022-09-11T19:26:22.112Z,99323.70
2022-09-11T19:28:50.368Z,99318.76
2022-09-11T19:31:24.346Z,99317.00
2022-09-11T19:33:53.575Z,99317.48
2022-09-11T19:36:23.111Z,99316.14
2022-09-11T19:38:52.448Z,99317.89
2022-09-11T19:41:22.314Z,99318.35
2022-09-11T19:43:50.169Z,99318.00
2022-09-11T19:46:18.292Z,99316.58
2022-09-11T19:48:46.349Z,99318.33
2022-09-11T19:51:16.384Z,99314.00
2022-09-11T19:53:44.116Z,99313.66
2022-09-11T19:56:11.277Z,99312.00
2022-09-11T19:58:38.565Z,99312.14
2022-09-11T20:01:08.615Z,99310.23
2022-09-11T20:03:37.928Z,99306.20
2022-09-11T20:06:05.920Z,99306.89
2022-09-11T20:08:34.651Z,99303.13
2022-09-11T20:11:04.012Z,99302.96
2022-09-11T20:13:30.892Z,99305.02
2022-09-11T20:16:09.300Z,99304.31
2022-09-11T20:18:36.359Z,99299.82
2022-09-11T20:21:11.409Z,99298.50
2022-09-11T20:23:38.726Z,99292.83
2022-09-11T20:26:18.257Z,99287.64
2022-09-11T20:28:46.842Z,99287.23
2022-09-11T20:31:17.809Z,99286.40
2022-09-11T20:33:45.868Z,99282.91
2022-09-11T20:36:13.299Z,99283.61
2022-09-11T20:38:40.107Z,99287.36
2022-09-11T20:41:12.163Z,99286.40
2022-09-11T20:43:39.820Z,99288.80
2022-09-11T20:46:07.785Z,99290.88
2022-09-11T20:48:35.101Z,99286.59
2022-09-11T20:51:07.124Z,99288.88
2022-09-11T20:53:34.052Z,99284.52
2022-09-11T20:56:02.777Z,99289.17
2022-09-11T20:58:29.885Z,99305.92
2022-09-11T21:00:57.490Z,99326.27
2022-09-11T21:03:25.308Z,99331.70
2022-09-11T21:05:52.535Z,99327.63
2022-09-11T21:08:19.332Z,99318.39
2022-09-11T21:10:45.998Z,99325.84
2022-09-11T21:13:14.035Z,99330.02
2022-09-11T21:15:45.457Z,99324.99
2022-09-11T21:18:12.684Z,99325.09
2022-09-11T21:20:40.222Z,99325.33
2022-09-11T21:23:06.979Z,99325.62
2022-09-11T21:25:42.260Z,99321.79
2022-09-11T21:28:08.898Z,99325.38
2022-09-11T21:30:37.925Z,99320.73
2022-09-11T21:33:04.801Z,99321.44
2022-09-11T21:35:31.478Z,99318.69
2022-09-11T21:37:58.622Z,99315.94
2022-09-11T21:40:25.291Z,99316.91
2022-09-11T21:42:51.957Z,99314.94
2022-09-11T21:45:18.654Z,99314.27
2022-09-11T21:47:45.341Z,99312.23
2022-09-11T21:50:12.009Z,99310.54
2022-09-11T21:52:38.697Z,99311.48
2022-09-11T21:55:06.193Z,99311.30
2022-09-11T21:57:32.850Z,99310.18
2022-09-11T21:59:59.597Z,99308.96
2022-09-11T22:02:26.624Z,99309.08
2022-09-11T22:04:53.712Z,99308.16
2022-09-11T22:07:20.899Z,99311.19
2022-09-11T22:09:48.092Z,99307.23
2022-09-11T22:12:15.491Z,99308.68
2022-09-11T22:14:44.297Z,99306.58
2022-09-11T22:17:14.175Z,99303.79
2022-09-11T22:19:45.253Z,99306.95
2022-09-11T22:22:13.239Z,99307.02
2022-09-11T22:24:40.146Z,99314.64
2022-09-11T22:27:09.516Z,99323.84
2022-09-11T22:29:36.799Z,99322.05
2022-09-11T22:32:04.788Z,99318.40
2022-09-11T22:34:36.190Z,99317.84
2022-09-11T22:37:05.658Z,99314.49
2022-09-11T22:39:32.364Z,99314.03
2022-09-11T22:41:59.190Z,99314.20
2022-09-11T22:44:26.537Z,99311.23
2022-09-11T22:46:53.573Z,99307.27
2022-09-11T22:49:20.391Z,99302.86
2022-09-11T22:51:47.468Z,99302.46
2022-09-11T22:54:14.387Z,99301.80
2022-09-11T22:56:41.700Z,99304.58
2022-09-11T22:59:08.500Z,99303.81
2022-09-11T23:01:36.361Z,99306.17
2022-09-11T23:04:03.719Z,99301.40
2022-09-11T23:06:48.819Z,99302.46
2022-09-11T23:09:18.901Z,99304.75
2022-09-11T23:11:45.909Z,99306.00
2022-09-11T23:14:14.707Z,99304.59
2022-09-11T23:16:42.135Z,99302.78
2022-09-11T23:19:12.709Z,99298.84
2022-09-11T23:21:39.611Z,99294.27
2022-09-11T23:24:09.869Z,99290.67
2022-09-11T23:26:36.544Z,99289.75
2022-09-11T23:29:03.530Z,99292.34
2022-09-11T23:31:32.543Z,99298.86
2022-09-11T23:34:06.122Z,99297.14
2022-09-11T23:36:34.641Z,99295.94
2022-09-11T23:39:02.554Z,99301.88
2022-09-11T23:41:31.417Z,99299.61
2022-09-11T23:43:58.533Z,99303.58
2022-09-11T23:46:25.520Z,99310.37
2022-09-11T23:48:52.332Z,99304.23
2022-09-11T23:51:19.505Z,99300.00
2022-09-11T23:53:48.671Z,99307.07
2022-09-11T23:56:15.656Z,99302.84
2022-09-11T23:58:45.096Z,99302.14
